Latest Weather Observations for Giles*

IDW60801

Issued at 10:03 pm WST Friday 29 July 2016 (issued every 30 minutes, with the page automatically refreshed every 10 minutes)

About weather observations | Map of weather stations | Latest weather observations for WA | Other Formats
Station Details ID: 013017 Name: GILES METEOROLOGICAL OFFICE Lat: -25.03 Lon: 128.30 Height: 598.0 m
Data from the previous 72 hours. | See also: Recent months at Giles*

* Giles observations are collected in the South Australia time zone, which includes daylight saving in the summer period. Therefore, Rain since 9am value is with respect to South Australia local time.

Date/Time
WST
Temp
°C
App
Temp
°C
Dew
Point
°C
Rel
Hum
%
Delta-T
°C
Wind Press
QNH
hPa
Press
MSL
hPa
Rain since
9am
mm
Dir  Spd
km/h
Gust
km/h
Spd
kts
Gust
kts
29/10:00pm 15.3 11.8 -3.0 28 7.5 NNE 6 6 3 3 1022.8 1022.1 0.0
29/09:30pm 15.1 11.7 -1.8 31 7.1 NE 6 7 3 4 1022.9 1022.2 0.0
29/09:00pm 17.0 13.4 -3.7 24 8.5 NE 6 7 3 4 1022.9 1022.2 0.0
29/08:30pm 16.7 13.1 -3.9 24 8.4 ENE 6 6 3 3 1022.9 1022.2 0.0
29/08:00pm 17.1 13.4 -4.4 22 8.7 E 6 7 3 4 1022.9 1022.2 0.0
29/07:30pm 15.1 11.0 -3.4 28 7.5 E 9 11 5 6 1022.7 1022.0 0.0
29/07:00pm 14.4 12.1 -2.0 32 6.8 CALM 0 0 0 0 1022.4 1021.7 0.0
29/06:30pm 17.1 13.6 -1.5 28 8.0 N 7 7 4 4 1022.1 1021.4 0.0
29/06:00pm 18.1 14.7 -2.2 25 8.7 N 6 7 3 4 1021.7 1021.0 0.0
29/05:30pm 18.9 16.3 -1.4 25 8.9 N 2 7 1 4 1021.4 1020.7 0.0
29/05:00pm 20.5 17.4 -2.5 21 10.0 N 4 6 2 3 1021.3 1020.6 0.0
29/04:30pm 22.1 18.5 -3.6 17 11.1 NNW 6 7 3 4 1021.2 1020.5 0.0
29/04:00pm 22.5 19.6 -4.5 16 11.5 E 2 9 1 5 1021.1 1020.3 0.0
29/03:30pm 22.7 18.8 -5.0 15 11.7 NNE 7 13 4 7 1021.4 1020.7 0.0
29/03:00pm 22.7 19.0 -5.0 15 11.7 NE 6 13 3 7 1021.4 1020.7 0.0
29/02:30pm 22.4 18.2 -4.3 16 11.4 NNE 9 17 5 9 1021.5 1020.8 0.0
29/02:00pm 22.8 18.1 -5.2 15 11.8 NNW 11 15 6 8 1021.7 1021.0 0.0
29/01:30pm 22.4 19.4 -4.8 16 11.5 N 2 13 1 7 1021.9 1021.2 0.0
29/01:00pm 22.2 17.3 -7.0 13 11.8 NW 11 15 6 8 1022.3 1021.6 0.0
29/12:30pm 21.4 16.9 -3.5 18 10.7 N 11 20 6 11 1022.8 1022.1 0.0
29/12:00pm 20.8 15.8 -4.5 18 10.6 NNE 13 19 7 10 1023.3 1022.6 0.0
29/11:30am 20.4 15.0 -4.6 18 10.4 N 15 19 8 10 1023.9 1023.2 0.0
29/11:00am 19.8 14.0 -4.6 19 10.1 NNW 17 22 9 12 1024.3 1023.7 0.0
29/10:30am 19.4 13.6 -4.6 19 9.9 N 17 22 9 12 1024.8 1024.1 0.0
29/10:00am 18.9 13.3 -3.1 22 9.3 NE 17 22 9 12 1025.2 1024.5 0.0
29/09:30am 17.9 11.8 -3.6 23 9.0 NNE 19 28 10 15 1025.5 1024.9 0.0
29/09:00am 16.9 10.9 -2.7 26 8.2 NE 19 28 10 15 1025.7 1025.1 0.0
29/08:30am 15.5 10.5 -1.5 31 7.2 NE 15 20 8 11 1025.7 1025.1 0.0
29/08:00am 14.1 11.1 0.6 39 5.9 WNW 6 11 3 6 1025.5 1024.9 0.0
29/07:30am 12.2 9.2 0.6 45 5.0 W 6 11 3 6 1025.2 1024.5 0.0
29/07:00am 12.5 10.0 1.6 47 4.8 ENE 4 9 2 5 1024.7 1024.0 0.0
29/06:30am 10.9 6.7 -1.1 43 4.9 ENE 11 17 6 9 1024.6 1023.9 0.0
29/06:00am 8.5 5.4 -0.1 54 3.5 E 6 11 3 6 1024.7 1024.0 0.0
29/05:30am 7.3 4.2 0.1 60 2.9 SE 6 9 3 5 1024.6 1023.9 0.0
29/05:00am 8.1 4.1 0.3 58 3.2 NE 11 15 6 8 1024.2 1023.6 0.0
29/04:30am 7.1 2.8 0.8 64 2.6 E 13 15 7 8 1024.1 1023.5 0.0
29/04:00am 6.8 4.2 1.0 66 2.4 ESE 4 7 2 4 1023.9 1023.2 0.0
29/03:30am 8.4 4.8 0.4 57 3.3 ENE 9 15 5 8 1023.7 1023.0 0.0
29/03:00am 9.1 4.7 0.1 53 3.7 ENE 13 17 7 9 1023.6 1022.9 0.0
29/02:30am 8.2 3.9 1.0 60 3.0 ESE 13 13 7 7 1023.6 1022.9 0.0
29/02:00am 8.8 5.2 0.9 57 3.3 E 9 13 5 7 1023.7 1023.0 0.0
29/01:30am 9.3 6.2 1.3 57 3.4 ESE 7 11 4 6 1023.8 1023.1 0.0
29/01:00am 9.8 5.5 1.1 54 3.7 E 13 15 7 8 1024.0 1023.3 0.0
29/12:30am 8.9 5.5 1.9 61 3.0 ESE 9 11 5 6 1024.3 1023.7 0.0
29/12:00am 9.6 5.6 0.8 54 3.7 E 11 13 6 7 1024.6 1023.9 0.0
 
Date/Time
WST
Temp
°C
App
Temp
°C
Dew
Point
°C
Rel
Hum
%
Delta-T
°C
Wind Press
QNH
hPa
Press
MSL
hPa
Rain since
9am
mm
Dir  Spd
km/h
Gust
km/h
Spd
kts
Gust
kts
28/11:30pm 9.6 6.0 0.8 54 3.7 ESE 9 13 5 7 1024.9 1024.2 0.0
28/11:00pm 10.8 6.5 0.7 49 4.3 E 13 15 7 8 1025.0 1024.3 0.0
28/10:30pm 11.8 8.3 1.2 48 4.6 ENE 9 13 5 7 1025.2 1024.5 0.0
28/10:00pm 12.2 7.8 0.2 43 5.1 E 13 17 7 9 1025.4 1024.7 0.0
28/09:30pm 12.4 8.0 0.5 44 5.1 ENE 13 15 7 8 1025.5 1024.9 0.0
28/09:00pm 13.0 8.1 -0.2 40 5.6 E 15 17 8 9 1025.6 1025.0 0.0
28/08:30pm 13.8 9.3 -0.5 37 6.1 E 13 15 7 8 1025.6 1025.0 0.0
28/08:00pm 13.0 8.5 -0.2 40 5.6 E 13 15 7 8 1025.6 1025.0 0.0
28/07:30pm 15.4 11.2 -0.6 33 6.9 ENE 11 13 6 7 1025.4 1024.7 0.0
28/07:00pm 15.7 11.1 -0.8 32 7.1 ENE 13 15 7 8 1025.1 1024.4 0.0
28/06:30pm 15.9 11.2 -1.5 30 7.4 E 13 13 7 7 1025.0 1024.3 0.0
28/06:00pm 15.9 11.7 -0.8 32 7.2 E 11 13 6 7 1024.8 1024.1 0.0
28/05:30pm 17.8 13.6 -0.6 28 8.1 ENE 11 13 6 7 1024.3 1023.7 0.0
28/05:00pm 18.9 15.1 -0.7 26 8.7 ENE 9 11 5 6 1024.2 1023.6 0.0
28/04:30pm 20.9 17.4 -1.7 22 10.0 NE 7 9 4 5 1024.1 1023.5 0.0
28/04:00pm 21.4 16.8 -4.0 18 10.8 ENE 11 15 6 8 1023.9 1023.2 0.0
28/03:30pm 21.7 17.1 -4.2 17 11.0 NE 11 17 6 9 1023.9 1023.2 0.0
28/03:00pm 21.8 16.7 -5.4 15 11.3 ENE 13 19 7 10 1023.9 1023.2 0.0
28/02:30pm 21.8 16.7 -5.4 15 11.3 E 13 20 7 11 1024.1 1023.5 0.0
28/02:00pm 21.7 15.9 -4.7 16 11.1 E 17 22 9 12 1024.3 1023.7 0.0
28/01:30pm 21.4 15.7 -4.0 18 10.8 ENE 17 24 9 13 1024.6 1023.9 0.0
28/01:00pm 21.4 15.7 -3.6 18 10.7 ENE 17 26 9 14 1024.9 1024.2 0.0
28/12:30pm 21.2 15.1 -4.1 18 10.8 ENE 19 26 10 14 1025.5 1024.9 0.0
28/12:00pm 20.5 13.8 -4.4 18 10.4 ENE 22 32 12 17 1025.8 1025.2 0.0
28/11:30am 19.9 13.1 -5.4 17 10.4 ENE 22 30 12 16 1026.7 1026.0 0.0
28/11:00am 19.1 12.7 -5.4 18 9.9 ENE 20 28 11 15 1027.1 1026.5 0.0
28/10:30am 17.9 12.3 -0.1 29 8.0 ENE 19 26 10 14 1027.7 1027.1 0.0
28/10:00am 16.8 11.3 0.4 33 7.3 ENE 19 26 10 14 1028.4 1027.7 0.0
28/09:30am 15.7 10.9 0.5 35 6.8 ENE 15 22 8 12 1029.3 1028.7 0.0
28/09:00am 14.8 10.6 1.7 41 5.9 ENE 13 20 7 11 1029.5 1028.9 0.0
28/08:30am 13.8 9.3 2.3 45 5.2 E 15 20 8 11 1029.3 1028.7 0.0
28/08:00am 11.0 7.0 2.9 57 3.6 ESE 13 19 7 10 1029.0 1028.4 0.0
28/07:30am 8.5 4.9 2.8 67 2.5 ESE 11 15 6 8 1029.1 1028.5 0.0
28/07:00am 6.7 2.2 1.9 71 2.0 ESE 15 19 8 10 1028.7 1028.1 0.0
28/06:30am 4.8 0.6 1.6 80 1.3 SE 13 17 7 9 1028.4 1027.7 0.0
28/06:00am 5.3 0.4 1.9 79 1.4 SE 17 19 9 10 1028.0 1027.3 0.0
28/05:30am 6.1 2.7 1.8 74 1.8 ESE 9 11 5 6 1027.1 1026.5 0.0
28/05:00am 7.1 3.7 1.9 69 2.2 E 9 13 5 7 1026.7 1026.0 0.0
28/04:30am 6.1 2.3 1.5 72 1.9 ESE 11 15 6 8 1026.7 1026.0 0.0
28/04:00am 6.5 1.5 1.4 70 2.1 ESE 17 19 9 10 1026.4 1025.7 0.0
28/03:30am 7.1 3.2 1.3 66 2.4 ESE 11 13 6 7 1026.5 1025.8 0.0
28/03:00am 7.7 3.8 0.9 62 2.8 ESE 11 13 6 7 1026.4 1025.7 0.0
28/02:30am 8.5 3.4 0.5 57 3.3 E 17 19 9 10 1025.9 1025.3 0.0
28/02:00am 8.5 3.3 0.2 56 3.4 E 17 19 9 10 1026.3 1025.6 0.0
28/01:30am 7.1 3.1 0.8 64 2.6 ESE 11 13 6 7 1026.5 1025.8 0.0
28/01:00am 7.0 3.4 0.9 65 2.5 ESE 9 11 5 6 1026.4 1025.7 0.0
28/12:30am 9.3 4.8 -0.2 51 3.9 ESE 13 17 7 9 1026.5 1025.8 0.0
28/12:00am 9.5 5.0 -0.3 50 4.0 ESE 13 15 7 8 1026.6 1025.9 0.0
 
Date/Time
WST
Temp
°C
App
Temp
°C
Dew
Point
°C
Rel
Hum
%
Delta-T
°C
Wind Press
QNH
hPa
Press
MSL
hPa
Rain since
9am
mm
Dir  Spd
km/h
Gust
km/h
Spd
kts
Gust
kts
27/11:30pm 10.5 5.6 -0.7 46 4.6 E 15 19 8 10 1026.6 1025.9 0.0
27/11:00pm 9.8 4.9 -0.5 48 4.2 E 15 19 8 10 1026.9 1026.2 0.0
27/10:30pm 9.7 4.8 -0.6 48 4.2 ESE 15 17 8 9 1027.0 1026.4 0.0
27/10:00pm 10.6 6.0 -1.2 44 4.8 E 13 13 7 7 1027.0 1026.4 0.0
27/09:30pm 11.1 6.8 -1.5 41 5.1 E 11 13 6 7 1027.0 1026.4 0.0
27/09:00pm 11.7 7.1 -1.2 41 5.3 E 13 13 7 7 1027.0 1026.4 0.0
27/08:30pm 11.8 7.5 -1.4 40 5.4 E 11 13 6 7 1027.0 1026.4 0.0
27/08:00pm 12.5 8.6 -1.3 38 5.7 ENE 9 11 5 6 1026.8 1026.1 0.0
27/07:30pm 12.6 8.7 -1.5 37 5.8 ENE 9 11 5 6 1026.7 1026.0 0.0
27/07:00pm 12.9 8.5 -2.1 35 6.1 E 11 13 6 7 1026.2 1025.5 0.0
27/06:30pm 14.0 9.7 -2.0 33 6.6 ENE 11 13 6 7 1025.8 1025.2 0.0
27/06:00pm 14.2 9.4 -2.4 31 6.8 E 13 13 7 7 1025.6 1025.0 0.0
27/05:30pm 15.5 10.9 -3.9 26 7.8 ESE 11 13 6 7 1025.6 1025.0 0.0
27/05:00pm 17.5 12.0 -5.4 20 9.1 ESE 15 20 8 11 1025.3 1024.6 0.0
27/04:30pm 19.3 12.9 -6.4 17 10.2 ESE 19 24 10 13 1025.2 1024.5 0.0
27/04:00pm 19.7 13.7 -6.9 16 10.5 ESE 17 26 9 14 1025.2 1024.5 0.0
27/03:30pm 20.3 13.6 -7.5 14 11.0 ESE 20 28 11 15 1025.4 1024.7 0.0
27/03:00pm 20.9 14.9 -6.3 15 11.0 SE 17 28 9 15 1025.5 1024.9 0.0
27/02:30pm 20.7 14.8 -5.3 17 10.7 ESE 17 28 9 15 1025.4 1024.7 0.0
27/02:00pm 20.5 15.4 -5.3 17 10.6 ESE 13 20 7 11 1025.7 1025.1 0.0
27/01:30pm 20.3 15.2 -1.8 22 9.7 E 15 22 8 12 1025.9 1025.3 0.0
27/01:00pm 19.4 14.0 -4.2 20 9.8 ESE 15 24 8 13 1026.0 1025.4 0.0
27/12:30pm 19.3 14.5 -2.3 23 9.4 E 13 22 7 12 1026.4 1025.7 0.0
27/12:00pm 18.6 13.4 -2.9 23 9.1 ESE 15 26 8 14 1026.6 1025.9 0.0
27/11:30am 18.1 13.8 -1.5 26 8.5 ESE 11 22 6 12 1027.1 1026.5 0.0
27/11:00am 17.4 12.7 -2.1 26 8.3 E 13 20 7 11 1027.5 1026.9 0.0
27/10:30am 16.8 11.5 -0.6 30 7.6 E 17 28 9 15 1027.6 1027.0 0.0
27/10:00am 16.4 11.0 -1.0 30 7.5 E 17 26 9 14 1027.7 1027.1 0.0
27/09:30am 15.3 9.0 -0.8 33 6.9 ESE 22 32 12 17 1027.7 1027.1 0.0
27/09:00am 14.0 7.1 0.1 38 6.0 ESE 26 35 14 19 1027.7 1027.1 0.0
27/08:30am 12.5 6.8 0.4 43 5.2 ESE 20 35 11 19 1027.6 1027.0 0.0
27/08:00am 10.5 5.0 0.5 50 4.2 E 19 24 10 13 1027.6 1027.0 0.0
27/07:30am 9.2 5.2 0.6 55 3.6 E 11 17 6 9 1027.5 1026.9 0.0
27/07:00am 7.7 3.0 0.6 61 2.9 SE 15 20 8 11 1027.2 1026.6 0.0
27/06:30am 6.6 1.4 0.1 63 2.6 ESE 17 24 9 13 1026.9 1026.2 0.0
27/06:00am 6.1 1.6 -0.2 64 2.5 E 13 19 7 10 1026.6 1025.9 0.0
27/05:30am 6.5 1.6 -0.3 62 2.7 E 15 19 8 10 1026.5 1025.8 0.0
27/05:00am 6.4 1.9 -0.4 62 2.7 E 13 19 7 10 1026.3 1025.6 0.0
27/04:30am 6.9 2.0 -0.4 59 2.9 ESE 15 20 8 11 1026.0 1025.4 0.0
27/04:00am 6.9 1.6 -0.4 59 2.9 ESE 17 24 9 13 1025.7 1025.1 0.0
27/03:30am 5.7 1.2 -0.1 66 2.3 ESE 13 15 7 8 1025.7 1025.1 0.0
27/03:00am 6.6 1.7 -0.5 60 2.8 ESE 15 19 8 10 1025.5 1024.9 0.0
27/02:30am 6.6 2.1 -0.5 60 2.8 ESE 13 15 7 8 1025.5 1024.9 0.0
27/02:00am 8.0 2.6 -1.1 52 3.6 ESE 17 20 9 11 1025.4 1024.7 0.0
27/01:30am 8.1 3.5 -0.9 53 3.6 E 13 19 7 10 1025.4 1024.7 0.0
27/01:00am 8.1 3.9 -0.9 53 3.6 E 11 15 6 8 1025.6 1025.0 0.0
27/12:30am 8.1 3.9 -0.9 53 3.6 E 11 15 6 8 1025.8 1025.2 0.0
27/12:00am 9.0 4.8 -1.0 49 4.0 E 11 15 6 8 1025.8 1025.2 0.0
 
Date/Time
WST
Temp
°C
App
Temp
°C
Dew
Point
°C
Rel
Hum
%
Delta-T
°C
Wind Press
QNH
hPa
Press
MSL
hPa
Rain since
9am
mm
Dir  Spd
km/h
Gust
km/h
Spd
kts
Gust
kts
26/11:30pm 9.1 4.5 -1.1 49 4.1 ESE 13 15 7 8 1025.7 1025.1 0.0
26/11:00pm 9.0 4.7 -1.3 48 4.1 ESE 11 13 6 7 1025.8 1025.2 0.0
26/10:30pm 8.7 4.9 -0.7 51 3.8 ESE 9 11 5 6 1025.9 1025.3 0.0
26/10:00pm 8.8 5.4 -0.3 53 3.7 ESE 7 9 4 5 1025.8 1025.2 0.0
26/09:30pm 9.4 5.6 -1.0 48 4.2 SE 9 11 5 6 1025.6 1025.0 0.0
26/09:00pm 9.9 5.2 -2.0 43 4.7 SE 13 17 7 9 1025.4 1024.7 0.0

Other Formats:

Comma delimited format used in spreadsheet applications
http://www.bom.gov.au/fwo/IDW60801/IDW60801.94461.axf

JavaScript Object Notation format (JSON) in row-major order
http://www.bom.gov.au/fwo/IDW60801/IDW60801.94461.json